Time;durP1;ratioP1;P1;durP2;ratioP2;P2;SDS_P1;SDS_P2;PMS_P1;PMS_P2;Temp;Humidity;BMP_temperature;BMP_pressure;BME280_temperature;BME280_humidity;BME280_pressure;Samples;Min_cycle;Max_cycle;Signal;HPM_P1;HPM_P2
2024/01/16 00:00:24;;;;;;;;;;;;;;;;;;4950989;28;19930;-72
2024/01/16 00:02:51;;;;;;;;;;;;;;;;;;4955202;28;19953;-73
2024/01/16 00:05:18;;;;;;;;;;;;;;;;;;4967303;28;19926;-72
2024/01/16 00:07:45;;;;;;;;;;;;;;;;;;4950791;28;19927;-72
2024/01/16 00:10:12;;;;;;;;;;;;;;;;;;4951003;28;19942;-72
2024/01/16 00:12:40;;;;;;;;;;;;;;;;;;4951008;28;19966;-71
2024/01/16 00:15:07;;;;;;;;;;;;;;;;;;4950217;28;19972;-71
2024/01/16 00:17:34;;;;;;;;;;;;;;;;;;4950816;28;19962;-71
2024/01/16 00:20:01;;;;;;;;;;;;;;;;;;4950641;28;19927;-71
2024/01/16 00:22:28;;;;;;;;;;;;;;;;;;4950593;28;19926;-70
2024/01/16 00:24:55;;;;;;;;;;;;;;;;;;4950239;28;19988;-71
2024/01/16 00:27:22;;;;;;;;;;;;;;;;;;4951897;28;19984;-72
2024/01/16 00:29:49;;;;;;;;;;;;;;;;;;4953867;28;19930;-72
2024/01/16 00:32:16;;;;;;;;;;;;;;;;;;4971685;28;19930;-71
2024/01/16 00:34:43;;;;;;;;;;;;;;;;;;4973445;28;19933;-71
2024/01/16 00:37:11;;;;;;;;;;;;;;;;;;4953695;28;19926;-71
2024/01/16 00:39:38;;;;;;;;;;;;;;;;;;4953326;28;20013;-71
2024/01/16 00:42:05;;;;;;;;;;;;;;;;;;4953673;28;19979;-72
2024/01/16 00:44:32;;;;;;;;;;;;;;;;;;4954052;28;19926;-72
2024/01/16 00:47:01;;;;;;;;;;;;;;;;;;4953460;28;20544;-74
2024/01/16 00:49:28;;;;;;;;;;;;;;;;;;4953353;28;20378;-72
2024/01/16 00:51:55;;;;;;;;;;;;;;;;;;4953748;28;20033;-73
2024/01/16 00:54:22;;;;;;;;;;;;;;;;;;4953849;28;20002;-73
2024/01/16 00:56:50;;;;;;;;;;;;;;;;;;4954476;28;19927;-72
2024/01/16 00:59:17;;;;;;;;;;;;;;;;;;4961212;28;20274;-71
2024/01/16 01:01:44;;;;;;;;;;;;;;;;;;4957232;28;20373;-71
2024/01/16 01:04:11;;;;;;;;;;;;;;;;;;4972524;28;19972;-73
2024/01/16 01:06:38;;;;;;;;;;;;;;;;;;4960045;28;19980;-71
2024/01/16 01:09:05;;;;;;;;;;;;;;;;;;4953533;28;19926;-72
2024/01/16 01:11:32;;;;;;;;;;;;;;;;;;4954006;28;20357;-71
2024/01/16 01:14:00;;;;;;;;;;;;;;;;;;4955862;28;19970;-70
2024/01/16 01:16:27;;;;;;;;;;;;;;;;;;4953550;28;19980;-71
2024/01/16 01:18:54;;;;;;;;;;;;;;;;;;4954237;28;19987;-70
2024/01/16 01:21:21;;;;;;;;;;;;;;;;;;4968118;28;19926;-69
2024/01/16 01:23:48;;;;;;;;;;;;;;;;;;4959062;28;19988;-69
2024/01/16 01:26:17;;;;;;;;;;;;;;;;;;4953918;28;19934;-70
2024/01/16 01:28:44;;;;;;;;;;;;;;;;;;4955550;28;20380;-71
2024/01/16 01:31:11;;;;;;;;;;;;;;;;;;4959450;28;19927;-71
2024/01/16 01:33:38;;;;;;;;;;;;;;;;;;4953111;28;19926;-71
2024/01/16 01:36:06;;;;;;;;;;;;;;;;;;4953504;28;20046;-71
2024/01/16 01:38:33;;;;;;;;;;;;;;;;;;4952833;28;19931;-71
2024/01/16 01:41:00;;;;;;;;;;;;;;;;;;4952686;28;20463;-71
2024/01/16 01:43:27;;;;;;;;;;;;;;;;;;4959678;28;19930;-71
2024/01/16 01:45:54;;;;;;;;;;;;;;;;;;4954025;28;19996;-71
2024/01/16 01:48:21;;;;;;;;;;;;;;;;;;4953083;28;19934;-71
2024/01/16 01:50:48;;;;;;;;;;;;;;;;;;4955419;28;19992;-71
2024/01/16 01:53:15;;;;;;;;;;;;;;;;;;4969198;28;19930;-71
2024/01/16 01:55:42;;;;;;;;;;;;;;;;;;4953191;28;19981;-72
2024/01/16 01:58:09;;;;;;;;;;;;;;;;;;4953482;28;19970;-71
2024/01/16 02:00:36;;;;;;;;;;;;;;;;;;4953297;28;20044;-71
2024/01/16 02:03:03;;;;;;;;;;;;;;;;;;4953224;28;19933;-71
2024/01/16 02:05:30;;;;;;;;;;;;;;;;;;4952754;28;19927;-71
2024/01/16 02:07:57;;;;;;;;;;;;;;;;;;4951990;28;19934;-71
2024/01/16 02:10:25;;;;;;;;;;;;;;;;;;4951880;28;19927;-71
2024/01/16 02:12:52;;;;;;;;;;;;;;;;;;4951740;28;19977;-71
2024/01/16 02:15:19;;;;;;;;;;;;;;;;;;4952892;28;19958;-70
2024/01/16 02:17:46;;;;;;;;;;;;;;;;;;4952472;28;19927;-70
2024/01/16 02:20:13;;;;;;;;;;;;;;;;;;4959867;28;19933;-71
2024/01/16 02:22:40;;;;;;;;;;;;;;;;;;4983000;28;19980;-71
2024/01/16 02:25:07;;;;;;;;;;;;;;;;;;4955676;28;19934;-71
2024/01/16 02:27:34;;;;;;;;;;;;;;;;;;4961199;28;19980;-70
2024/01/16 02:30:01;;;;;;;;;;;;;;;;;;4952951;28;19985;-71
2024/01/16 02:32:28;;;;;;;;;;;;;;;;;;4953864;28;20397;-71
2024/01/16 02:34:55;;;;;;;;;;;;;;;;;;4969511;28;20385;-70
2024/01/16 02:37:22;;;;;;;;;;;;;;;;;;4971345;28;19927;-71
2024/01/16 02:39:50;;;;;;;;;;;;;;;;;;4952147;28;20276;-71
2024/01/16 02:42:17;;;;;;;;;;;;;;;;;;4958632;28;19930;-71
2024/01/16 02:44:44;;;;;;;;;;;;;;;;;;4963897;28;19926;-71
2024/01/16 02:47:11;;;;;;;;;;;;;;;;;;4951839;28;19930;-71
2024/01/16 02:49:39;;;;;;;;;;;;;;;;;;4952729;28;19988;-70
2024/01/16 02:52:06;;;;;;;;;;;;;;;;;;4951141;28;19933;-70
2024/01/16 02:54:34;;;;;;;;;;;;;;;;;;4951705;28;19972;-71
2024/01/16 02:57:01;;;;;;;;;;;;;;;;;;4951454;28;19926;-71
2024/01/16 02:59:30;;;;;;;;;;;;;;;;;;4951136;28;20000;-72
2024/01/16 03:01:57;;;;;;;;;;;;;;;;;;4951638;28;19926;-72
2024/01/16 03:04:24;;;;;;;;;;;;;;;;;;4951734;28;19973;-72
2024/01/16 03:06:51;;;;;;;;;;;;;;;;;;4951499;28;20045;-72
2024/01/16 03:09:19;;;;;;;;;;;;;;;;;;4960784;28;19934;-72
2024/01/16 03:11:46;;;;;;;;;;;;;;;;;;4958711;28;20381;-71
2024/01/16 03:14:13;;;;;;;;;;;;;;;;;;4951641;28;19927;-71
2024/01/16 03:16:40;;;;;;;;;;;;;;;;;;4957172;28;19926;-71
2024/01/16 03:19:07;;;;;;;;;;;;;;;;;;4968244;28;19938;-72
2024/01/16 03:21:34;;;;;;;;;;;;;;;;;;4965009;28;19931;-71
2024/01/16 03:24:01;;;;;;;;;;;;;;;;;;4951752;28;19996;-70
2024/01/16 03:26:28;;;;;;;;;;;;;;;;;;4950642;28;20282;-71
2024/01/16 03:28:56;;;;;;;;;;;;;;;;;;4954470;28;20385;-71
2024/01/16 03:31:23;;;;;;;;;;;;;;;;;;4966768;28;19927;-71
2024/01/16 03:33:50;;;;;;;;;;;;;;;;;;4950937;28;19934;-70
2024/01/16 03:36:17;;;;;;;;;;;;;;;;;;4951264;28;19926;-70
2024/01/16 03:38:44;;;;;;;;;;;;;;;;;;4951689;28;19927;-70
2024/01/16 03:41:12;;;;;;;;;;;;;;;;;;4951282;28;19930;-70
2024/01/16 03:43:39;;;;;;;;;;;;;;;;;;4951934;28;20355;-70
2024/01/16 03:46:06;;;;;;;;;;;;;;;;;;4970255;28;19979;-70
2024/01/16 03:48:33;;;;;;;;;;;;;;;;;;4962869;28;19976;-70
2024/01/16 03:51:00;;;;;;;;;;;;;;;;;;4970489;28;19934;-70
2024/01/16 03:53:28;;;;;;;;;;;;;;;;;;4952748;28;19934;-70
2024/01/16 03:55:55;;;;;;;;;;;;;;;;;;4951156;28;20164;-70
2024/01/16 03:58:22;;;;;;;;;;;;;;;;;;4949525;28;20350;-70
2024/01/16 04:00:50;;;;;;;;;;;;;;;;;;4950754;28;19933;-70
2024/01/16 04:03:17;;;;;;;;;;;;;;;;;;4950051;28;19930;-71
2024/01/16 04:05:44;;;;;;;;;;;;;;;;;;4950844;28;19949;-71
2024/01/16 04:08:12;;;;;;;;;;;;;;;;;;4950423;28;19926;-70
2024/01/16 04:10:38;;;;;;;;;;;;;;;;;;4950997;28;19927;-71
2024/01/16 04:13:07;;;;;;;;;;;;;;;;;;4958538;28;20210;-71
2024/01/16 04:15:34;;;;;;;;;;;;;;;;;;4950769;28;19931;-71
2024/01/16 04:18:01;;;;;;;;;;;;;;;;;;4950827;28;19930;-71
2024/01/16 04:20:28;;;;;;;;;;;;;;;;;;4950426;28;19931;-71
2024/01/16 04:22:55;;;;;;;;;;;;;;;;;;4950227;28;19926;-70
2024/01/16 04:25:22;;;;;;;;;;;;;;;;;;4961874;28;19926;-71
2024/01/16 04:27:49;;;;;;;;;;;;;;;;;;4949781;28;19980;-71
2024/01/16 04:30:16;;;;;;;;;;;;;;;;;;4960416;28;20358;-71
2024/01/16 04:32:43;;;;;;;;;;;;;;;;;;4958260;28;20435;-71
2024/01/16 04:35:10;;;;;;;;;;;;;;;;;;4950765;28;19927;-71
2024/01/16 04:37:37;;;;;;;;;;;;;;;;;;4950641;28;20390;-70
2024/01/16 04:40:05;;;;;;;;;;;;;;;;;;4952484;28;19961;-71
2024/01/16 04:42:32;;;;;;;;;;;;;;;;;;4959284;28;19926;-71
2024/01/16 04:44:59;;;;;;;;;;;;;;;;;;4958228;28;20331;-71
2024/01/16 04:47:26;;;;;;;;;;;;;;;;;;4964503;28;19928;-70
2024/01/16 04:49:53;;;;;;;;;;;;;;;;;;4955973;28;19966;-69
2024/01/16 04:52:20;;;;;;;;;;;;;;;;;;4952225;28;19980;-70
2024/01/16 04:54:47;;;;;;;;;;;;;;;;;;4952967;28;19972;-71
2024/01/16 04:57:15;;;;;;;;;;;;;;;;;;4950139;28;20028;-70
2024/01/16 04:59:42;;;;;;;;;;;;;;;;;;4953259;28;20296;-70
2024/01/16 05:02:09;;;;;;;;;;;;;;;;;;4949741;28;19958;-70
2024/01/16 05:04:36;;;;;;;;;;;;;;;;;;4961866;28;19927;-73
2024/01/16 05:07:03;;;;;;;;;;;;;;;;;;4950584;28;19980;-72
2024/01/16 05:09:30;;;;;;;;;;;;;;;;;;4952010;28;19981;-72
2024/01/16 05:11:57;;;;;;;;;;;;;;;;;;4967405;28;20047;-69
2024/01/16 05:14:25;;;;;;;;;;;;;;;;;;4950776;28;19934;-72
2024/01/16 05:16:52;;;;;;;;;;;;;;;;;;4964719;28;19926;-72
2024/01/16 05:19:19;;;;;;;;;;;;;;;;;;4954372;28;19927;-70
2024/01/16 05:21:46;;;;;;;;;;;;;;;;;;4952728;28;20029;-72
2024/01/16 05:24:13;;;;;;;;;;;;;;;;;;4970177;28;19945;-69
2024/01/16 05:26:40;;;;;;;;;;;;;;;;;;4978287;28;19926;-69
2024/01/16 05:29:07;;;;;;;;;;;;;;;;;;4972383;28;19956;-69
2024/01/16 05:31:34;;;;;;;;;;;;;;;;;;4955565;28;19927;-70
2024/01/16 05:34:02;;;;;;;;;;;;;;;;;;4957395;28;19933;-69
2024/01/16 05:36:29;;;;;;;;;;;;;;;;;;4956494;28;19930;-70
2024/01/16 05:38:56;;;;;;;;;;;;;;;;;;4960960;28;19930;-69
2024/01/16 05:41:23;;;;;;;;;;;;;;;;;;4963178;28;19926;-70
2024/01/16 05:43:50;;;;;;;;;;;;;;;;;;4957058;28;19938;-70
2024/01/16 05:46:17;;;;;;;;;;;;;;;;;;4953183;28;19981;-70
2024/01/16 05:48:44;;;;;;;;;;;;;;;;;;4982094;28;19979;-69
2024/01/16 05:51:11;;;;;;;;;;;;;;;;;;4976176;28;19988;-70
2024/01/16 05:53:38;;;;;;;;;;;;;;;;;;4953219;28;20079;-70
2024/01/16 05:56:05;;;;;;;;;;;;;;;;;;4953101;28;19927;-70
2024/01/16 05:58:38;;;;;;;;;;;;;;;;;;4952338;28;19926;-69
2024/01/16 06:01:05;;;;;;;;;;;;;;;;;;4953799;28;19931;-69
2024/01/16 06:03:32;;;;;;;;;;;;;;;;;;4952596;28;20313;-68
2024/01/16 06:05:59;;;;;;;;;;;;;;;;;;4952499;28;19980;-69
2024/01/16 06:08:26;;;;;;;;;;;;;;;;;;4955810;28;20377;-70
2024/01/16 06:10:53;;;;;;;;;;;;;;;;;;4949512;28;20012;-70
2024/01/16 06:13:20;;;;;;;;;;;;;;;;;;4955888;28;22006;-68
2024/01/16 06:15:48;;;;;;;;;;;;;;;;;;4961252;28;19934;-67
2024/01/16 06:18:15;;;;;;;;;;;;;;;;;;5009143;23;19952;-68
2024/01/16 06:20:42;;;;;;;;;;;;;;;;;;5077530;28;19924;-68
2024/01/16 06:23:09;;;;;;;;;;;;;;;;;;5070379;28;20406;-67
2024/01/16 06:25:36;;;;;;;;;;;;;;;;;;5069435;28;20290;-68
2024/01/16 06:28:05;;;;;;;;;;;;;;;;;;5074193;22;19924;-67
2024/01/16 06:30:32;;;;;;;;;;;;;;;;;;5029558;28;19933;-67
2024/01/16 06:32:59;;;;;;;;;;;;;;;;;;5030058;28;19925;-67
2024/01/16 06:35:26;;;;;;;;;;;;;;;;;;5028149;28;19925;-68
2024/01/16 06:37:53;;;;;;;;;;;;;;;;;;5027880;28;19925;-67
2024/01/16 06:40:20;;;;;;;;;;;;;;;;;;5021364;28;19926;-67
2024/01/16 06:42:47;;;;;;;;;;;;;;;;;;5028183;28;20495;-67
2024/01/16 06:45:15;;;;;;;;;;;;;;;;;;5020539;28;19925;-68
2024/01/16 06:47:42;;;;;;;;;;;;;;;;;;5020874;28;20489;-67
2024/01/16 06:50:09;;;;;;;;;;;;;;;;;;5017282;28;19944;-67
2024/01/16 06:52:36;;;;;;;;;;;;;;;;;;5010281;28;19926;-67
2024/01/16 06:55:04;;;;;;;;;;;;;;;;;;5014194;28;19925;-68
2024/01/16 06:57:31;;;;;;;;;;;;;;;;;;5013558;28;20012;-66
2024/01/16 06:59:58;;;;;;;;;;;;;;;;;;5011321;28;19982;-67
2024/01/16 07:02:26;;;;;;;;;;;;;;;;;;5012581;28;20580;-66
2024/01/16 07:04:53;;;;;;;;;;;;;;;;;;5020048;28;20055;-65
2024/01/16 07:07:20;;;;;;;;;;;;;;;;;;5013653;28;19979;-65
2024/01/16 07:09:47;;;;;;;;;;;;;;;;;;5024698;28;19929;-64
2024/01/16 07:12:14;;;;;;;;;;;;;;;;;;5019669;28;20321;-64
2024/01/16 07:14:41;;;;;;;;;;;;;;;;;;5019440;27;19925;-65
2024/01/16 07:17:08;;;;;;;;;;;;;;;;;;5013614;28;19933;-66
2024/01/16 07:19:35;;;;;;;;;;;;;;;;;;5017300;28;19932;-67
2024/01/16 07:22:02;;;;;;;;;;;;;;;;;;5016219;28;19934;-67
2024/01/16 07:24:30;;;;;;;;;;;;;;;;;;5017830;28;20000;-66
2024/01/16 07:26:57;;;;;;;;;;;;;;;;;;5022877;28;19970;-66
2024/01/16 07:29:31;;;;;;;;;;;;;;;;;;5015890;28;20922;-64
2024/01/16 07:31:59;;;;;;;;;;;;;;;;;;5008882;28;19968;-63
2024/01/16 07:34:26;;;;;;;;;;;;;;;;;;5020380;28;19925;-66
2024/01/16 07:36:54;;;;;;;;;;;;;;;;;;5017225;28;19936;-66
2024/01/16 07:39:22;;;;;;;;;;;;;;;;;;5021244;28;20623;-67
2024/01/16 07:41:49;;;;;;;;;;;;;;;;;;5023918;28;19968;-66
2024/01/16 07:44:16;;;;;;;;;;;;;;;;;;5021407;28;19926;-66
2024/01/16 07:46:43;;;;;;;;;;;;;;;;;;5024655;28;19979;-67
2024/01/16 07:49:11;;;;;;;;;;;;;;;;;;5013398;28;19933;-67
2024/01/16 07:51:38;;;;;;;;;;;;;;;;;;5021058;28;19937;-66
2024/01/16 07:54:05;;;;;;;;;;;;;;;;;;5016049;28;19929;-66
2024/01/16 07:56:32;;;;;;;;;;;;;;;;;;5017409;28;19929;-67
2024/01/16 07:58:59;;;;;;;;;;;;;;;;;;5014917;28;19929;-66
2024/01/16 08:01:26;;;;;;;;;;;;;;;;;;5016050;28;19960;-66
2024/01/16 08:03:53;;;;;;;;;;;;;;;;;;5020078;28;19997;-66
2024/01/16 08:06:20;;;;;;;;;;;;;;;;;;5020863;28;19925;-67
2024/01/16 08:08:47;;;;;;;;;;;;;;;;;;5025728;28;19925;-66
2024/01/16 08:11:14;;;;;;;;;;;;;;;;;;5016672;28;19929;-66
2024/01/16 08:13:41;;;;;;;;;;;;;;;;;;5018958;28;20024;-66
2024/01/16 08:16:08;;;;;;;;;;;;;;;;;;5024876;28;19925;-66
2024/01/16 08:18:35;;;;;;;;;;;;;;;;;;5017738;28;20269;-66
2024/01/16 08:21:02;;;;;;;;;;;;;;;;;;5019947;28;19979;-67
2024/01/16 08:23:29;;;;;;;;;;;;;;;;;;5025539;28;19929;-66
2024/01/16 08:25:56;;;;;;;;;;;;;;;;;;5011912;28;19993;-66
2024/01/16 08:28:24;;;;;;;;;;;;;;;;;;5024914;28;19925;-66
2024/01/16 08:30:51;;;;;;;;;;;;;;;;;;5024085;28;20302;-66
2024/01/16 08:33:18;;;;;;;;;;;;;;;;;;5012627;28;19933;-66
2024/01/16 08:35:45;;;;;;;;;;;;;;;;;;5024914;28;20006;-66
2024/01/16 08:38:12;;;;;;;;;;;;;;;;;;5017783;28;19979;-65
2024/01/16 08:40:41;;;;;;;;;;;;;;;;;;5018339;28;19992;-66
2024/01/16 08:43:08;;;;;;;;;;;;;;;;;;5021276;28;19926;-67
2024/01/16 08:45:35;;;;;;;;;;;;;;;;;;5021458;28;19992;-66
2024/01/16 08:48:02;;;;;;;;;;;;;;;;;;5026539;28;19925;-67
2024/01/16 08:50:29;;;;;;;;;;;;;;;;;;5028575;28;19934;-66
2024/01/16 08:52:56;;;;;;;;;;;;;;;;;;5031674;28;19925;-66
2024/01/16 08:55:23;;;;;;;;;;;;;;;;;;5018245;28;19961;-64
2024/01/16 08:57:50;;;;;;;;;;;;;;;;;;5027369;28;19964;-67
2024/01/16 09:00:17;;;;;;;;;;;;;;;;;;5024950;28;19965;-66
2024/01/16 09:02:44;;;;;;;;;;;;;;;;;;5023475;28;19932;-64
2024/01/16 09:05:13;;;;;;;;;;;;;;;;;;5019456;28;19941;-65
2024/01/16 09:07:40;;;;;;;;;;;;;;;;;;5029685;28;20012;-64
2024/01/16 09:10:07;;;;;;;;;;;;;;;;;;5013486;28;20190;-65
2024/01/16 09:12:34;;;;;;;;;;;;;;;;;;5009902;28;19979;-64
2024/01/16 09:15:01;;;;;;;;;;;;;;;;;;5013224;28;19926;-64
2024/01/16 09:17:28;;;;;;;;;;;;;;;;;;5022826;28;20399;-65
2024/01/16 09:19:56;;;;;;;;;;;;;;;;;;5023774;28;20387;-66
2024/01/16 09:22:23;;;;;;;;;;;;;;;;;;5029692;28;19929;-65
2024/01/16 09:24:50;;;;;;;;;;;;;;;;;;5031239;28;20395;-65
2024/01/16 09:27:17;;;;;;;;;;;;;;;;;;5024341;28;19978;-66
2024/01/16 09:29:44;;;;;;;;;;;;;;;;;;5010916;28;19930;-66
2024/01/16 09:32:11;;;;;;;;;;;;;;;;;;5101532;23;20016;-65
2024/01/16 09:34:39;;;;;;;;;;;;;;;;;;5070962;28;20346;-66
2024/01/16 09:37:06;;;;;;;;;;;;;;;;;;5081263;28;19924;-66
2024/01/16 09:39:34;;;;;;;;;;;;;;;;;;5086808;28;20438;-66
2024/01/16 09:42:01;;;;;;;;;;;;;;;;;;5064119;28;20240;-66
2024/01/16 09:44:28;;;;;;;;;;;;;;;;;;5064719;28;20003;-66
2024/01/16 09:46:55;;;;;;;;;;;;;;;;;;5074976;28;19978;-66
2024/01/16 09:49:23;;;;;;;;;;;;;;;;;;5075722;28;20527;-66
2024/01/16 09:51:50;;;;;;;;;;;;;;;;;;5065606;28;19925;-66
2024/01/16 09:54:17;;;;;;;;;;;;;;;;;;5070606;28;19924;-64
2024/01/16 09:56:45;;;;;;;;;;;;;;;;;;5071384;28;19924;-64
2024/01/16 09:59:12;;;;;;;;;;;;;;;;;;5070255;28;19928;-63
2024/01/16 10:01:39;;;;;;;;;;;;;;;;;;5066664;28;19925;-64
2024/01/16 10:04:06;;;;;;;;;;;;;;;;;;5075732;28;19987;-64
2024/01/16 10:06:33;;;;;;;;;;;;;;;;;;5067848;28;19974;-64
2024/01/16 10:09:00;;;;;;;;;;;;;;;;;;5068043;28;19928;-63
2024/01/16 10:11:27;;;;;;;;;;;;;;;;;;5070417;28;20306;-64
2024/01/16 10:13:54;;;;;;;;;;;;;;;;;;5073223;28;19924;-63
2024/01/16 10:16:21;;;;;;;;;;;;;;;;;;5081815;28;20024;-63
2024/01/16 10:18:49;;;;;;;;;;;;;;;;;;5069834;28;20306;-64
2024/01/16 10:21:16;;;;;;;;;;;;;;;;;;5076498;28;19970;-64
2024/01/16 10:23:43;;;;;;;;;;;;;;;;;;5078469;28;19978;-63
2024/01/16 10:26:11;;;;;;;;;;;;;;;;;;5077409;28;20346;-63
2024/01/16 10:28:38;;;;;;;;;;;;;;;;;;5083824;28;19962;-63
2024/01/16 10:31:05;;;;;;;;;;;;;;;;;;5070321;28;19955;-63
2024/01/16 10:33:32;;;;;;;;;;;;;;;;;;5072403;28;19951;-63
2024/01/16 10:35:59;;;;;;;;;;;;;;;;;;5072534;28;19937;-63
2024/01/16 10:38:26;;;;;;;;;;;;;;;;;;5072609;28;19975;-63
2024/01/16 10:40:53;;;;;;;;;;;;;;;;;;5080599;28;20246;-64
2024/01/16 10:43:20;;;;;;;;;;;;;;;;;;5054722;28;19968;-63
2024/01/16 10:45:47;;;;;;;;;;;;;;;;;;5068732;28;19924;-65
2024/01/16 10:48:15;;;;;;;;;;;;;;;;;;5072559;28;20301;-65
2024/01/16 10:50:43;;;;;;;;;;;;;;;;;;5071741;28;20020;-65
2024/01/16 10:53:10;;;;;;;;;;;;;;;;;;5071828;28;19931;-66
2024/01/16 10:55:38;;;;;;;;;;;;;;;;;;5070555;28;19924;-66
2024/01/16 10:58:05;;;;;;;;;;;;;;;;;;5071217;28;19925;-66
2024/01/16 11:00:32;;;;;;;;;;;;;;;;;;5073497;28;19986;-66
2024/01/16 11:02:59;;;;;;;;;;;;;;;;;;5072158;28;20480;-65
2024/01/16 11:05:26;;;;;;;;;;;;;;;;;;5071177;28;19924;-65
2024/01/16 11:07:53;;;;;;;;;;;;;;;;;;5080111;28;19985;-65
2024/01/16 11:10:20;;;;;;;;;;;;;;;;;;5076930;28;19931;-65
2024/01/16 11:12:47;;;;;;;;;;;;;;;;;;5070457;28;19925;-65
2024/01/16 11:15:14;;;;;;;;;;;;;;;;;;5073848;28;20433;-66
2024/01/16 11:17:41;;;;;;;;;;;;;;;;;;5070804;28;19971;-65
2024/01/16 11:20:09;;;;;;;;;;;;;;;;;;5068533;28;19924;-68
2024/01/16 11:22:38;;;;;;;;;;;;;;;;;;5080751;28;19924;-65
2024/01/16 11:25:05;;;;;;;;;;;;;;;;;;5060363;28;19925;-66
2024/01/16 11:27:32;;;;;;;;;;;;;;;;;;5064217;28;19932;-66
2024/01/16 11:29:59;;;;;;;;;;;;;;;;;;5068853;28;19951;-66
2024/01/16 11:32:26;;;;;;;;;;;;;;;;;;5076310;28;20276;-66
2024/01/16 11:34:54;;;;;;;;;;;;;;;;;;5072536;28;20395;-65
2024/01/16 11:37:21;;;;;;;;;;;;;;;;;;5074417;28;19925;-67
2024/01/16 11:39:48;;;;;;;;;;;;;;;;;;5070568;28;19928;-66
2024/01/16 11:42:16;;;;;;;;;;;;;;;;;;5066456;28;19930;-66
2024/01/16 11:44:43;;;;;;;;;;;;;;;;;;5069593;28;19947;-66
2024/01/16 11:47:10;;;;;;;;;;;;;;;;;;5068807;28;19924;-66
2024/01/16 11:49:37;;;;;;;;;;;;;;;;;;5072046;28;20330;-66
2024/01/16 11:52:04;;;;;;;;;;;;;;;;;;5068241;28;19936;-65
2024/01/16 11:54:31;;;;;;;;;;;;;;;;;;5077374;28;19951;-64
2024/01/16 11:56:58;;;;;;;;;;;;;;;;;;5073646;28;19928;-63
2024/01/16 11:59:24;;;;;;;;;;;;;;;;;;5071130;28;19933;-64
2024/01/16 12:01:52;;;;;;;;;;;;;;;;;;5074905;28;19924;-64
2024/01/16 12:04:20;;;;;;;;;;;;;;;;;;5069645;28;19928;-64
2024/01/16 12:06:47;;;;;;;;;;;;;;;;;;5070861;28;20019;-63
2024/01/16 12:09:14;;;;;;;;;;;;;;;;;;5068929;28;19928;-64
2024/01/16 12:11:43;;;;;;;;;;;;;;;;;;5078724;28;19939;-64
2024/01/16 12:14:10;;;;;;;;;;;;;;;;;;5070474;28;19943;-65
2024/01/16 12:16:37;;;;;;;;;;;;;;;;;;5067701;28;19924;-66
2024/01/16 12:19:04;;;;;;;;;;;;;;;;;;5070277;28;20387;-66
2024/01/16 12:21:31;;;;;;;;;;;;;;;;;;5077782;28;19925;-66
2024/01/16 12:23:58;;;;;;;;;;;;;;;;;;5069037;28;19986;-66
2024/01/16 12:26:25;;;;;;;;;;;;;;;;;;5067996;28;19924;-66
2024/01/16 12:28:52;;;;;;;;;;;;;;;;;;5071469;28;19924;-66
2024/01/16 12:31:19;;;;;;;;;;;;;;;;;;5073617;28;19952;-65
2024/01/16 12:33:47;;;;;;;;;;;;;;;;;;5066899;28;19924;-65
2024/01/16 12:36:14;;;;;;;;;;;;;;;;;;5063157;28;20409;-65
2024/01/16 12:38:41;;;;;;;;;;;;;;;;;;5070201;28;20334;-66
2024/01/16 12:41:08;;;;;;;;;;;;;;;;;;5071080;28;19986;-65
2024/01/16 12:43:36;;;;;;;;;;;;;;;;;;5068417;28;19928;-65
2024/01/16 12:46:03;;;;;;;;;;;;;;;;;;5072178;28;20387;-65
2024/01/16 12:48:30;;;;;;;;;;;;;;;;;;5066120;28;20383;-65
2024/01/16 12:50:57;;;;;;;;;;;;;;;;;;5065008;28;19964;-65
2024/01/16 12:53:24;;;;;;;;;;;;;;;;;;5068531;28;19985;-64
2024/01/16 12:55:52;;;;;;;;;;;;;;;;;;5066609;28;19931;-65
2024/01/16 12:58:19;;;;;;;;;;;;;;;;;;5071353;28;19950;-65
2024/01/16 13:00:46;;;;;;;;;;;;;;;;;;5075848;28;19931;-65
2024/01/16 13:03:13;;;;;;;;;;;;;;;;;;5070601;28;19985;-65
2024/01/16 13:05:40;;;;;;;;;;;;;;;;;;5074000;28;19969;-65
2024/01/16 13:08:07;;;;;;;;;;;;;;;;;;5074251;28;19925;-65
2024/01/16 13:10:34;;;;;;;;;;;;;;;;;;5077167;28;20028;-65
2024/01/16 13:13:01;;;;;;;;;;;;;;;;;;5076181;28;19928;-65
2024/01/16 13:15:28;;;;;;;;;;;;;;;;;;5075649;28;20444;-65
2024/01/16 13:17:55;;;;;;;;;;;;;;;;;;5069562;28;19924;-64
2024/01/16 13:20:23;;;;;;;;;;;;;;;;;;5063475;28;19925;-64
2024/01/16 13:22:50;;;;;;;;;;;;;;;;;;5070289;28;20012;-63
2024/01/16 13:25:17;;;;;;;;;;;;;;;;;;5064558;28;19924;-64
2024/01/16 13:27:44;;;;;;;;;;;;;;;;;;5071908;28;19970;-64
2024/01/16 13:30:11;;;;;;;;;;;;;;;;;;5077734;28;19969;-64
2024/01/16 13:32:38;;;;;;;;;;;;;;;;;;5055042;28;20300;-65
2024/01/16 13:35:08;;;;;;;;;;;;;;;;;;5068229;28;19932;-65
2024/01/16 13:37:37;;;;;;;;;;;;;;;;;;5068987;28;20355;-65
2024/01/16 13:40:08;;;;;;;;;;;;;;;;;;5085012;28;20367;-65
2024/01/16 13:42:35;;;;;;;;;;;;;;;;;;5076867;28;20023;-65
2024/01/16 13:45:04;;;;;;;;;;;;;;;;;;5075323;28;19924;-65
2024/01/16 13:47:31;;;;;;;;;;;;;;;;;;5089213;28;19978;-65
2024/01/16 13:49:58;;;;;;;;;;;;;;;;;;5086195;28;20275;-65
2024/01/16 13:52:25;;;;;;;;;;;;;;;;;;5062361;28;19960;-65
2024/01/16 13:54:52;;;;;;;;;;;;;;;;;;5079122;28;19924;-64
2024/01/16 13:57:19;;;;;;;;;;;;;;;;;;5081655;28;20466;-64
2024/01/16 13:59:46;;;;;;;;;;;;;;;;;;5087163;28;19924;-65
2024/01/16 14:02:13;;;;;;;;;;;;;;;;;;5063560;28;20009;-65
2024/01/16 14:04:40;;;;;;;;;;;;;;;;;;5074584;28;19925;-65
2024/01/16 14:07:07;;;;;;;;;;;;;;;;;;5073736;28;19925;-66
2024/01/16 14:09:34;;;;;;;;;;;;;;;;;;5080342;28;19931;-65
2024/01/16 14:12:01;;;;;;;;;;;;;;;;;;5081674;28;19998;-65
2024/01/16 14:14:28;;;;;;;;;;;;;;;;;;5077211;28;20304;-65
2024/01/16 14:16:55;;;;;;;;;;;;;;;;;;5062887;28;19991;-65
2024/01/16 14:19:22;;;;;;;;;;;;;;;;;;5073279;28;19979;-66
2024/01/16 14:21:49;;;;;;;;;;;;;;;;;;5065023;28;20062;-65
2024/01/16 14:24:16;;;;;;;;;;;;;;;;;;5061852;28;19951;-65
2024/01/16 14:26:45;;;;;;;;;;;;;;;;;;5061133;28;20428;-65
2024/01/16 14:29:12;;;;;;;;;;;;;;;;;;5073539;28;20318;-65
2024/01/16 14:31:42;;;;;;;;;;;;;;;;;;5071422;28;19924;-65
2024/01/16 14:34:09;;;;;;;;;;;;;;;;;;5090545;28;19924;-65
2024/01/16 14:36:36;;;;;;;;;;;;;;;;;;5072682;28;19970;-65
2024/01/16 14:39:03;;;;;;;;;;;;;;;;;;5090300;28;19931;-65
2024/01/16 14:41:31;;;;;;;;;;;;;;;;;;5071715;28;20003;-65
2024/01/16 14:43:58;;;;;;;;;;;;;;;;;;5082526;28;19932;-65
2024/01/16 14:46:27;;;;;;;;;;;;;;;;;;5076123;28;20027;-65
2024/01/16 14:48:54;;;;;;;;;;;;;;;;;;5087476;28;19924;-65
2024/01/16 14:51:21;;;;;;;;;;;;;;;;;;5078684;28;19925;-65
2024/01/16 14:53:48;;;;;;;;;;;;;;;;;;5075596;28;20006;-66
2024/01/16 14:56:15;;;;;;;;;;;;;;;;;;5077729;28;19926;-65
2024/01/16 14:58:43;;;;;;;;;;;;;;;;;;5079480;28;19947;-65
2024/01/16 15:01:10;;;;;;;;;;;;;;;;;;5074007;28;20023;-65
2024/01/16 15:03:38;;;;;;;;;;;;;;;;;;5071147;28;19931;-65
2024/01/16 15:06:05;;;;;;;;;;;;;;;;;;5087201;28;19924;-65
2024/01/16 15:08:32;;;;;;;;;;;;;;;;;;5073256;28;19925;-65
2024/01/16 15:11:00;;;;;;;;;;;;;;;;;;5078493;28;19924;-65
2024/01/16 15:13:27;;;;;;;;;;;;;;;;;;5073030;28;19924;-67
2024/01/16 15:15:55;;;;;;;;;;;;;;;;;;5067327;28;20023;-65
2024/01/16 15:18:22;;;;;;;;;;;;;;;;;;5078877;28;19924;-66
2024/01/16 15:20:50;;;;;;;;;;;;;;;;;;5073036;28;20287;-65
2024/01/16 15:23:17;;;;;;;;;;;;;;;;;;5088151;28;19928;-64
2024/01/16 15:25:44;;;;;;;;;;;;;;;;;;5072154;28;20031;-65
2024/01/16 15:28:11;;;;;;;;;;;;;;;;;;5070155;28;19964;-64
2024/01/16 15:30:38;;;;;;;;;;;;;;;;;;5067346;28;20319;-66
2024/01/16 15:33:08;;;;;;;;;;;;;;;;;;5067268;28;20001;-65
2024/01/16 15:35:35;;;;;;;;;;;;;;;;;;5061797;28;19925;-66
2024/01/16 15:38:02;;;;;;;;;;;;;;;;;;5059894;28;19929;-66
2024/01/16 15:40:30;;;;;;;;;;;;;;;;;;5065908;28;19924;-65
2024/01/16 15:42:58;;;;;;;;;;;;;;;;;;5066333;28;19928;-65
2024/01/16 15:45:26;;;;;;;;;;;;;;;;;;5067461;28;20366;-65
2024/01/16 15:47:53;;;;;;;;;;;;;;;;;;5069957;28;19925;-65
2024/01/16 15:50:21;;;;;;;;;;;;;;;;;;5062417;28;19932;-65
2024/01/16 15:52:49;;;;;;;;;;;;;;;;;;5062443;28;19931;-65
2024/01/16 15:55:16;;;;;;;;;;;;;;;;;;5064418;28;19978;-65
2024/01/16 15:57:43;;;;;;;;;;;;;;;;;;5064803;28;19956;-65
2024/01/16 16:00:10;;;;;;;;;;;;;;;;;;5085315;28;19959;-65
2024/01/16 16:02:37;;;;;;;;;;;;;;;;;;5061858;28;19928;-65
2024/01/16 16:05:05;;;;;;;;;;;;;;;;;;5073741;28;19932;-65
2024/01/16 16:07:32;;;;;;;;;;;;;;;;;;5085524;28;19952;-64
2024/01/16 16:09:59;;;;;;;;;;;;;;;;;;5066983;28;19970;-66
2024/01/16 16:12:26;;;;;;;;;;;;;;;;;;5078761;28;20020;-66
2024/01/16 16:14:53;;;;;;;;;;;;;;;;;;5082611;28;19924;-66
2024/01/16 16:17:20;;;;;;;;;;;;;;;;;;5070271;28;20343;-66
2024/01/16 16:19:49;;;;;;;;;;;;;;;;;;5072585;28;19928;-66
2024/01/16 16:22:16;;;;;;;;;;;;;;;;;;5057876;28;19924;-66
2024/01/16 16:24:43;;;;;;;;;;;;;;;;;;5073132;28;19925;-66
2024/01/16 16:27:10;;;;;;;;;;;;;;;;;;5061701;28;19932;-66
2024/01/16 16:29:37;;;;;;;;;;;;;;;;;;5068592;28;19935;-66
2024/01/16 16:32:04;;;;;;;;;;;;;;;;;;5077114;28;19924;-66
2024/01/16 16:34:32;;;;;;;;;;;;;;;;;;5070103;28;20013;-66
2024/01/16 16:36:59;;;;;;;;;;;;;;;;;;5067434;28;19931;-66
2024/01/16 16:39:26;;;;;;;;;;;;;;;;;;5062459;28;19925;-67
2024/01/16 16:41:53;;;;;;;;;;;;;;;;;;5061751;28;20394;-66
2024/01/16 16:44:20;;;;;;;;;;;;;;;;;;5074892;28;19924;-66